sensor_id;sensor_type;location;lat;lon;timestamp;pressure;altitude;pressure_sealevel;temperature;humidity
42451;BME280;28080;51.138;17.170;2024-03-29T00:06:37;98629.85;;;9.57;60.17
42451;BME280;28080;51.138;17.170;2024-03-29T00:17:01;98652.84;;;9.42;61.32
42451;BME280;28080;51.138;17.170;2024-03-29T00:27:28;98671.67;;;9.30;61.98
42451;BME280;28080;51.138;17.170;2024-03-29T00:37:43;98691.00;;;9.17;62.62
42451;BME280;28080;51.138;17.170;2024-03-29T00:47:50;98716.20;;;9.08;62.93
42451;BME280;28080;51.138;17.170;2024-03-29T00:58:15;98742.01;;;8.90;63.42
42451;BME280;28080;51.138;17.170;2024-03-29T01:08:23;98766.65;;;8.76;63.69
42451;BME280;28080;51.138;17.170;2024-03-29T01:18:30;98788.35;;;8.64;64.24
42451;BME280;28080;51.138;17.170;2024-03-29T01:28:36;98799.83;;;8.48;64.62
42451;BME280;28080;51.138;17.170;2024-03-29T01:38:43;98805.80;;;8.38;64.98
42451;BME280;28080;51.138;17.170;2024-03-29T01:48:55;98811.94;;;8.35;65.16
42451;BME280;28080;51.138;17.170;2024-03-29T01:59:04;98813.69;;;8.33;64.95
42451;BME280;28080;51.138;17.170;2024-03-29T02:09:12;98813.20;;;8.27;64.97
42451;BME280;28080;51.138;17.170;2024-03-29T02:19:37;98814.98;;;8.25;64.88
42451;BME280;28080;51.138;17.170;2024-03-29T02:29:44;98823.53;;;8.24;64.90
42451;BME280;28080;51.138;17.170;2024-03-29T02:40:11;98835.20;;;8.25;65.05
42451;BME280;28080;51.138;17.170;2024-03-29T02:50:36;98856.66;;;8.17;64.93
42451;BME280;28080;51.138;17.170;2024-03-29T03:01:07;98872.85;;;8.03;65.22
42451;BME280;28080;51.138;17.170;2024-03-29T03:11:32;98878.02;;;7.85;66.14
42451;BME280;28080;51.138;17.170;2024-03-29T03:21:57;98879.92;;;7.68;66.95
42451;BME280;28080;51.138;17.170;2024-03-29T03:32:22;98893.30;;;7.56;67.55
42451;BME280;28080;51.138;17.170;2024-03-29T03:42:47;98888.55;;;7.44;68.09
42451;BME280;28080;51.138;17.170;2024-03-29T03:52:55;98883.12;;;7.33;68.15
42451;BME280;28080;51.138;17.170;2024-03-29T04:03:19;98885.42;;;7.25;68.23
42451;BME280;28080;51.138;17.170;2024-03-29T04:13:46;98915.39;;;7.19;68.24
42451;BME280;28080;51.138;17.170;2024-03-29T04:24:11;98925.54;;;7.13;68.32
42451;BME280;28080;51.138;17.170;2024-03-29T04:34:36;98922.19;;;7.06;68.43
42451;BME280;28080;51.138;17.170;2024-03-29T04:45:01;98939.60;;;7.01;68.39
42451;BME280;28080;51.138;17.170;2024-03-29T04:55:27;98949.95;;;6.97;68.32
42451;BME280;28080;51.138;17.170;2024-03-29T05:05:52;98956.98;;;6.85;68.85
42451;BME280;28080;51.138;17.170;2024-03-29T05:16:13;98951.19;;;6.73;69.35
42451;BME280;28080;51.138;17.170;2024-03-29T05:26:38;98960.94;;;6.75;69.75
42451;BME280;28080;51.138;17.170;2024-03-29T05:37:03;98966.74;;;6.80;70.04
42451;BME280;28080;51.138;17.170;2024-03-29T05:47:28;98970.87;;;6.88;70.17
42451;BME280;28080;51.138;17.170;2024-03-29T05:57:54;98964.85;;;7.05;69.99
42451;BME280;28080;51.138;17.170;2024-03-29T06:08:19;98979.37;;;7.32;69.43
42451;BME280;28080;51.138;17.170;2024-03-29T06:18:44;98969.45;;;7.62;68.71
42451;BME280;28080;51.138;17.170;2024-03-29T06:28:52;98975.09;;;7.93;67.85
42451;BME280;28080;51.138;17.170;2024-03-29T06:39:16;98983.27;;;8.29;67.10
42451;BME280;28080;51.138;17.170;2024-03-29T06:49:41;98977.43;;;8.73;66.09
42451;BME280;28080;51.138;17.170;2024-03-29T07:00:08;98969.92;;;9.24;64.43
42451;BME280;28080;51.138;17.170;2024-03-29T07:10:34;98980.23;;;9.73;62.12
42451;BME280;28080;51.138;17.170;2024-03-29T07:20:59;99003.58;;;10.09;60.52
42451;BME280;28080;51.138;17.170;2024-03-29T07:31:23;99015.63;;;10.40;59.27
42451;BME280;28080;51.138;17.170;2024-03-29T07:41:48;99029.30;;;10.59;57.82
42451;BME280;28080;51.138;17.170;2024-03-29T07:52:13;99033.58;;;10.66;57.07
42451;BME280;28080;51.138;17.170;2024-03-29T08:02:40;99020.39;;;10.78;56.98
42451;BME280;28080;51.138;17.170;2024-03-29T08:13:05;99044.02;;;11.01;56.35
42451;BME280;28080;51.138;17.170;2024-03-29T08:23:30;99065.24;;;11.27;55.01
42451;BME280;28080;51.138;17.170;2024-03-29T08:33:35;99072.97;;;11.48;53.55
42451;BME280;28080;51.138;17.170;2024-03-29T08:44:01;99069.95;;;11.73;53.01
42451;BME280;28080;51.138;17.170;2024-03-29T08:54:26;99070.86;;;12.12;50.30
42451;BME280;28080;51.138;17.170;2024-03-29T09:04:51;99054.84;;;12.52;48.26
42451;BME280;28080;51.138;17.170;2024-03-29T09:15:16;99048.33;;;12.91;46.54
42451;BME280;28080;51.138;17.170;2024-03-29T09:25:42;99043.83;;;13.27;45.05
42451;BME280;28080;51.138;17.170;2024-03-29T09:36:08;99026.77;;;13.69;43.41
42451;BME280;28080;51.138;17.170;2024-03-29T09:46:34;99024.27;;;13.97;41.93
42451;BME280;28080;51.138;17.170;2024-03-29T09:56:56;99014.60;;;14.30;40.97
42451;BME280;28080;51.138;17.170;2024-03-29T10:07:22;99007.45;;;14.78;40.08
42451;BME280;28080;51.138;17.170;2024-03-29T10:17:48;98998.17;;;15.28;37.82
42451;BME280;28080;51.138;17.170;2024-03-29T10:28:05;98995.11;;;15.55;36.30
42451;BME280;28080;51.138;17.170;2024-03-29T10:38:30;98984.98;;;15.71;35.68
42451;BME280;28080;51.138;17.170;2024-03-29T10:48:55;98972.23;;;15.88;35.65
42451;BME280;28080;51.138;17.170;2024-03-29T10:59:25;98940.63;;;15.98;35.75
42451;BME280;28080;51.138;17.170;2024-03-29T11:09:56;98932.45;;;16.11;35.12
42451;BME280;28080;51.138;17.170;2024-03-29T11:20:25;98937.05;;;16.35;35.37
42451;BME280;28080;51.138;17.170;2024-03-29T11:31:00;98931.55;;;16.54;35.04
42451;BME280;28080;51.138;17.170;2024-03-29T11:41:28;98921.27;;;16.73;33.86
42451;BME280;28080;51.138;17.170;2024-03-29T11:51:48;98923.90;;;16.93;33.23
42451;BME280;28080;51.138;17.170;2024-03-29T12:02:03;98927.40;;;16.99;32.52
42451;BME280;28080;51.138;17.170;2024-03-29T12:12:30;98922.65;;;17.04;32.85
42451;BME280;28080;51.138;17.170;2024-03-29T12:23:02;98905.42;;;17.24;33.09
42451;BME280;28080;51.138;17.170;2024-03-29T12:33:27;98897.94;;;17.50;32.64
42451;BME280;28080;51.138;17.170;2024-03-29T12:43:54;98877.70;;;17.57;32.01
42451;BME280;28080;51.138;17.170;2024-03-29T12:54:17;98869.78;;;17.62;32.29
42451;BME280;28080;51.138;17.170;2024-03-29T13:04:42;98869.79;;;17.74;32.34
42451;BME280;28080;51.138;17.170;2024-03-29T13:15:18;98875.05;;;17.66;33.00
42451;BME280;28080;51.138;17.170;2024-03-29T13:25:25;98864.52;;;17.51;33.19
42451;BME280;28080;51.138;17.170;2024-03-29T13:35:45;98844.09;;;17.49;33.32
42451;BME280;28080;51.138;17.170;2024-03-29T13:46:08;98847.70;;;17.59;33.77
42451;BME280;28080;51.138;17.170;2024-03-29T13:56:32;98861.73;;;17.54;33.53
42451;BME280;28080;51.138;17.170;2024-03-29T14:06:57;98857.91;;;17.42;34.21
42451;BME280;28080;51.138;17.170;2024-03-29T14:17:22;98850.39;;;17.45;34.48
42451;BME280;28080;51.138;17.170;2024-03-29T14:27:38;98841.10;;;17.57;34.86
42451;BME280;28080;51.138;17.170;2024-03-29T14:38:10;98832.36;;;17.65;34.90
42451;BME280;28080;51.138;17.170;2024-03-29T14:48:37;98813.34;;;17.69;34.55
42451;BME280;28080;51.138;17.170;2024-03-29T14:59:04;98809.17;;;17.64;33.67
42451;BME280;28080;51.138;17.170;2024-03-29T15:09:30;98813.84;;;17.65;33.65
42451;BME280;28080;51.138;17.170;2024-03-29T15:19:35;98810.16;;;17.74;34.60
42451;BME280;28080;51.138;17.170;2024-03-29T15:29:43;98794.89;;;17.74;34.33
42451;BME280;28080;51.138;17.170;2024-03-29T15:39:50;98798.91;;;17.55;35.07
42451;BME280;28080;51.138;17.170;2024-03-29T15:50:06;98779.81;;;17.38;35.87
42451;BME280;28080;51.138;17.170;2024-03-29T16:00:31;98778.65;;;17.22;36.85
42451;BME280;28080;51.138;17.170;2024-03-29T16:11:02;98782.85;;;17.22;38.48
42451;BME280;28080;51.138;17.170;2024-03-29T16:21:27;98792.55;;;17.14;40.10
42451;BME280;28080;51.138;17.170;2024-03-29T16:31:52;98790.61;;;16.95;41.48
42451;BME280;28080;51.138;17.170;2024-03-29T16:42:00;98783.40;;;16.69;42.72
42451;BME280;28080;51.138;17.170;2024-03-29T16:52:25;98786.45;;;16.43;44.25
42451;BME280;28080;51.138;17.170;2024-03-29T17:02:50;98795.12;;;16.22;45.81
42451;BME280;28080;51.138;17.170;2024-03-29T17:13:16;98790.14;;;16.05;47.29
42451;BME280;28080;51.138;17.170;2024-03-29T17:23:41;98782.59;;;15.90;48.95
42451;BME280;28080;51.138;17.170;2024-03-29T17:34:07;98791.85;;;15.76;50.68
42451;BME280;28080;51.138;17.170;2024-03-29T17:44:16;98793.91;;;15.64;51.63
42451;BME280;28080;51.138;17.170;2024-03-29T17:54:23;98792.68;;;15.54;52.50
42451;BME280;28080;51.138;17.170;2024-03-29T18:04:48;98802.75;;;15.44;52.89
42451;BME280;28080;51.138;17.170;2024-03-29T18:15:13;98808.73;;;15.29;53.12
42451;BME280;28080;51.138;17.170;2024-03-29T18:25:38;98816.16;;;15.05;53.23
42451;BME280;28080;51.138;17.170;2024-03-29T18:36:04;98811.94;;;14.85;53.91
42451;BME280;28080;51.138;17.170;2024-03-29T18:46:12;98815.60;;;14.64;55.14
42451;BME280;28080;51.138;17.170;2024-03-29T18:56:26;98820.64;;;14.42;55.52
42451;BME280;28080;51.138;17.170;2024-03-29T19:06:54;98828.70;;;14.37;55.65
42451;BME280;28080;51.138;17.170;2024-03-29T19:17:19;98826.42;;;14.19;56.18
42451;BME280;28080;51.138;17.170;2024-03-29T19:27:45;98828.70;;;14.00;57.07
42451;BME280;28080;51.138;17.170;2024-03-29T19:38:09;98837.02;;;13.83;57.83
42451;BME280;28080;51.138;17.170;2024-03-29T19:48:35;98829.51;;;13.72;58.52
42451;BME280;28080;51.138;17.170;2024-03-29T19:59:00;98840.27;;;13.65;58.55
42451;BME280;28080;51.138;17.170;2024-03-29T20:09:26;98845.02;;;13.61;58.68
42451;BME280;28080;51.138;17.170;2024-03-29T20:19:50;98826.26;;;13.39;59.41
42451;BME280;28080;51.138;17.170;2024-03-29T20:30:17;98828.00;;;13.18;60.16
42451;BME280;28080;51.138;17.170;2024-03-29T20:40:42;98834.73;;;13.07;61.33
42451;BME280;28080;51.138;17.170;2024-03-29T20:51:08;98837.98;;;12.98;62.05
42451;BME280;28080;51.138;17.170;2024-03-29T21:01:33;98831.36;;;12.96;62.82
42451;BME280;28080;51.138;17.170;2024-03-29T21:12:15;98837.05;;;12.88;64.03
42451;BME280;28080;51.138;17.170;2024-03-29T21:22:40;98832.40;;;12.81;65.01
42451;BME280;28080;51.138;17.170;2024-03-29T21:33:06;98829.98;;;12.73;65.69
42451;BME280;28080;51.138;17.170;2024-03-29T21:43:31;98835.79;;;12.65;66.88
42451;BME280;28080;51.138;17.170;2024-03-29T21:53:56;98832.58;;;12.47;69.36
42451;BME280;28080;51.138;17.170;2024-03-29T22:04:10;98819.39;;;12.27;72.57
42451;BME280;28080;51.138;17.170;2024-03-29T22:14:36;98823.83;;;12.22;74.06
42451;BME280;28080;51.138;17.170;2024-03-29T22:25:00;98834.23;;;12.23;75.23
42451;BME280;28080;51.138;17.170;2024-03-29T22:35:25;98831.13;;;12.23;76.18
42451;BME280;28080;51.138;17.170;2024-03-29T22:45:58;98828.91;;;12.22;76.98
42451;BME280;28080;51.138;17.170;2024-03-29T22:56:23;98833.25;;;12.15;77.14
42451;BME280;28080;51.138;17.170;2024-03-29T23:06:48;98838.39;;;12.07;77.68
42451;BME280;28080;51.138;17.170;2024-03-29T23:17:13;98846.56;;;12.02;78.34
42451;BME280;28080;51.138;17.170;2024-03-29T23:27:27;98838.81;;;11.96;79.28
42451;BME280;28080;51.138;17.170;2024-03-29T23:37:31;98842.83;;;11.91;79.82
42451;BME280;28080;51.138;17.170;2024-03-29T23:47:39;98840.79;;;11.86;79.97
42451;BME280;28080;51.138;17.170;2024-03-29T23:57:46;98837.67;;;11.75;80.39
